createdAt,value
2023-03-06T00:05:27.158Z,29.4
2023-03-06T00:11:32.686Z,29.4
2023-03-06T00:17:38.843Z,29.4
2023-03-06T00:23:44.610Z,29.5
2023-03-06T00:29:50.601Z,29.4
2023-03-06T00:35:56.590Z,29.4
2023-03-06T00:42:02.564Z,29.4
2023-03-06T00:48:08.753Z,29.4
2023-03-06T00:54:15.005Z,29.5
2023-03-06T01:00:20.900Z,29.5
2023-03-06T01:06:26.915Z,29.4
2023-03-06T01:12:32.678Z,29.4
2023-03-06T01:18:38.671Z,29.4
2023-03-06T01:24:44.450Z,29.5
2023-03-06T01:30:50.237Z,29.5
2023-03-06T01:36:55.976Z,29.4
2023-03-06T01:43:01.964Z,29.5
2023-03-06T01:49:07.765Z,29.4
2023-03-06T01:55:13.546Z,29.4
2023-03-06T02:01:19.226Z,29.5
2023-03-06T02:07:25.063Z,29.5
2023-03-06T02:13:31.055Z,29.5
2023-03-06T02:19:37.888Z,29.5
2023-03-06T02:25:43.458Z,29.5
2023-03-06T02:31:49.422Z,29.5
2023-03-06T02:37:55.214Z,29.5
2023-03-06T02:44:00.411Z,29.6
2023-03-06T02:50:05.769Z,29.5
2023-03-06T02:56:11.896Z,29.5
2023-03-06T03:02:17.056Z,29.5
2023-03-06T03:08:23.479Z,29.5
2023-03-06T03:14:28.878Z,29.5
2023-03-06T03:20:35.267Z,29.6
2023-03-06T03:26:40.841Z,29.6
2023-03-06T03:32:46.787Z,29.6
2023-03-06T03:38:51.970Z,29.7
2023-03-06T03:44:57.925Z,29.6
2023-03-06T03:51:04.108Z,29.7
2023-03-06T03:57:10.289Z,29.7
2023-03-06T04:03:16.282Z,29.7
2023-03-06T04:09:21.913Z,29.7
2023-03-06T04:15:27.821Z,29.7
2023-03-06T04:21:33.876Z,29.7
2023-03-06T04:27:39.373Z,29.7
2023-03-06T04:33:45.167Z,29.7
2023-03-06T04:39:51.157Z,29.7
2023-03-06T04:45:57.577Z,29.7
2023-03-06T04:52:03.496Z,29.7
2023-03-06T04:58:09.707Z,29.8
2023-03-06T05:04:15.690Z,29.7
2023-03-06T05:10:20.825Z,29.8
2023-03-06T05:16:26.848Z,29.8
2023-03-06T05:22:32.802Z,29.8
2023-03-06T05:28:38.815Z,29.8
2023-03-06T05:34:44.566Z,29.8
2023-03-06T05:40:50.142Z,29.7
2023-03-06T05:46:56.105Z,29.8
2023-03-06T05:53:02.308Z,29.8
2023-03-06T05:59:07.961Z,29.8
2023-03-06T06:05:16.533Z,29.7
2023-03-06T06:11:22.106Z,29.8
2023-03-06T06:17:28.096Z,29.7
2023-03-06T06:23:34.265Z,29.7
2023-03-06T06:29:40.045Z,29.7
2023-03-06T06:35:46.383Z,29.7
2023-03-06T06:42:41.132Z,29.8
2023-03-06T06:48:47.539Z,29.7
2023-03-06T06:54:53.929Z,29.7
2023-03-06T07:00:59.764Z,29.8
2023-03-06T07:07:06.085Z,29.7
2023-03-06T07:13:12.278Z,29.7
2023-03-06T07:19:18.081Z,29.6
2023-03-06T07:25:24.046Z,29.6
2023-03-06T07:31:30.679Z,29.6
2023-03-06T07:37:36.824Z,29.5
2023-03-06T07:43:43.223Z,29.6
2023-03-06T07:49:49.413Z,29.5
2023-03-06T07:55:54.857Z,29.6
2023-03-06T08:02:00.739Z,29.8
2023-03-06T08:08:07.163Z,29.8
2023-03-06T08:14:12.923Z,29.8
2023-03-06T08:20:18.690Z,29.7
2023-03-06T08:26:25.516Z,29.7
2023-03-06T08:32:31.506Z,29.9
2023-03-06T08:38:37.646Z,29.9
2023-03-06T08:44:43.835Z,29.9
2023-03-06T08:50:49.690Z,29.9
2023-03-06T08:56:55.813Z,30
2023-03-06T09:03:01.790Z,30
2023-03-06T09:09:07.759Z,30
2023-03-06T09:15:13.762Z,30
2023-03-06T09:21:20.158Z,30
2023-03-06T09:27:26.534Z,30
2023-03-06T09:33:32.737Z,29.9
2023-03-06T09:39:38.508Z,30
2023-03-06T09:45:44.285Z,30
2023-03-06T09:51:50.278Z,29.8
2023-03-06T09:57:56.656Z,29.8
2023-03-06T10:04:02.291Z,29.7
2023-03-06T10:10:08.196Z,29.5
2023-03-06T10:16:14.383Z,29.5
2023-03-06T10:22:20.365Z,29.4
2023-03-06T10:28:26.002Z,29.5
2023-03-06T10:34:32.626Z,29.6
2023-03-06T10:40:38.930Z,29.3
2023-03-06T10:46:45.079Z,29.3
2023-03-06T10:52:51.326Z,29.3
2023-03-06T10:58:57.480Z,29.4
2023-03-06T11:05:03.815Z,29.5
2023-03-06T11:11:09.925Z,29.3
2023-03-06T11:17:16.253Z,29.2
2023-03-06T11:23:22.246Z,29.3
2023-03-06T11:29:29.314Z,29.3
2023-03-06T11:35:35.345Z,29.3
2023-03-06T11:41:41.409Z,29.2
2023-03-06T11:47:47.195Z,29.3
2023-03-06T11:53:53.362Z,29.2
2023-03-06T11:59:59.345Z,29.2
2023-03-06T12:06:05.580Z,29.2
2023-03-06T12:12:11.601Z,29.2
2023-03-06T12:18:17.573Z,29.2
2023-03-06T12:24:23.892Z,29.2
2023-03-06T12:30:30.285Z,29.2
2023-03-06T12:36:36.341Z,29.3
2023-03-06T12:42:41.886Z,29.2
2023-03-06T12:48:47.825Z,29.2
2023-03-06T12:54:53.692Z,29.2
2023-03-06T13:01:07.646Z,29.2
2023-03-06T13:07:13.162Z,29.2
2023-03-06T13:13:18.907Z,29.2
2023-03-06T13:19:24.496Z,29.2
2023-03-06T13:25:30.730Z,29.3
2023-03-06T13:31:37.153Z,29.2
2023-03-06T13:37:43.039Z,29.3
2023-03-06T13:43:49.050Z,29.3
2023-03-06T13:49:55.209Z,29.2
2023-03-06T13:56:00.776Z,29.3
2023-03-06T14:02:06.766Z,29.2
2023-03-06T14:08:12.636Z,29.3
2023-03-06T14:14:18.447Z,29.2
2023-03-06T14:20:24.479Z,29.3
2023-03-06T14:26:30.050Z,29.2
2023-03-06T14:32:36.304Z,29.2
2023-03-06T14:38:42.276Z,29.2
2023-03-06T14:44:47.830Z,29.3
2023-03-06T14:50:53.879Z,29.2
2023-03-06T14:56:59.789Z,29.2
2023-03-06T15:03:05.802Z,29.3
2023-03-06T15:09:11.542Z,29.4
2023-03-06T15:15:17.287Z,29.3
2023-03-06T15:21:23.293Z,29.7
2023-03-06T15:27:29.286Z,29.6
2023-03-06T15:33:35.048Z,29.5
2023-03-06T15:39:41.065Z,29.6
2023-03-06T15:45:46.851Z,29.5
2023-03-06T15:51:52.799Z,29.6
2023-03-06T15:57:58.647Z,29.3
2023-03-06T16:04:04.808Z,29.3
2023-03-06T16:10:10.329Z,29.3
2023-03-06T16:16:16.171Z,29.5
2023-03-06T16:22:22.304Z,29.5
2023-03-06T16:28:28.542Z,29.3
2023-03-06T16:34:34.049Z,29.3
2023-03-06T16:40:40.026Z,29.2
2023-03-06T16:46:45.983Z,29.4
2023-03-06T16:52:51.778Z,29.1
2023-03-06T16:58:57.354Z,29.2
2023-03-06T17:05:03.529Z,29.2
2023-03-06T17:11:09.324Z,29.2
2023-03-06T17:17:15.113Z,29.4
2023-03-06T17:23:21.126Z,29.2
2023-03-06T17:29:26.866Z,29.2
2023-03-06T17:35:32.784Z,29.4
2023-03-06T17:41:38.814Z,29.4
2023-03-06T17:47:44.405Z,29.4
2023-03-06T17:53:50.583Z,29.6
2023-03-06T17:59:56.362Z,29.6
2023-03-06T18:06:02.345Z,29.5
2023-03-06T18:12:08.015Z,29.4
2023-03-06T18:18:13.919Z,29.4
2023-03-06T18:24:19.649Z,29.4
2023-03-06T18:30:25.681Z,29.6
2023-03-06T18:36:31.482Z,29.5
2023-03-06T18:42:37.632Z,29.6
2023-03-06T18:48:43.180Z,29.2
2023-03-06T18:54:48.764Z,29.4
2023-03-06T19:00:54.569Z,29.2
2023-03-06T19:06:59.963Z,29.6
2023-03-06T19:13:05.462Z,29.3
2023-03-06T19:19:11.659Z,29.5
2023-03-06T19:25:17.856Z,29.3
2023-03-06T19:31:24.049Z,29.3
2023-03-06T19:37:29.616Z,29.4
2023-03-06T19:43:34.976Z,29.3
2023-03-06T19:49:40.339Z,29.2
2023-03-06T19:55:47.341Z,29.1
2023-03-06T20:01:53.549Z,29.2
2023-03-06T20:07:59.336Z,29.2
2023-03-06T20:14:05.532Z,29.2
2023-03-06T20:20:10.855Z,29.2
2023-03-06T20:26:16.414Z,29.3
2023-03-06T20:32:22.687Z,29.4
2023-03-06T20:38:28.602Z,29.2
2023-03-06T20:44:34.483Z,29.5
2023-03-06T20:50:40.161Z,29.3
2023-03-06T20:56:46.753Z,29.2
2023-03-06T21:02:52.954Z,29.2
2023-03-06T21:08:59.134Z,29.2
2023-03-06T21:15:05.174Z,29.2
2023-03-06T21:21:10.889Z,29.3
2023-03-06T21:27:16.868Z,29.2
2023-03-06T21:33:23.253Z,29.2
2023-03-06T21:39:29.265Z,29.1
2023-03-06T21:45:35.253Z,29.2
2023-03-06T21:51:41.206Z,29.4
2023-03-06T21:57:46.980Z,29.2
2023-03-06T22:03:53.432Z,29.3
2023-03-06T22:09:59.349Z,29.3
2023-03-06T22:16:05.519Z,29.2
2023-03-06T22:22:13.983Z,29.2
2023-03-06T22:28:19.844Z,29.2
2023-03-06T22:34:25.931Z,29.2
2023-03-06T22:40:31.928Z,29.2
2023-03-06T22:46:37.891Z,29.2
2023-03-06T22:52:43.879Z,29.2
2023-03-06T22:58:49.678Z,29.2
2023-03-06T23:11:23.853Z,29.2
2023-03-06T23:17:30.329Z,29.2
2023-03-06T23:42:29.719Z,29.3
2023-03-06T23:48:37.124Z,29.3
2023-03-06T23:54:43.123Z,29.3
